createdAt,value
2019-05-25T00:02:13.625Z,2.43
2019-05-25T00:04:43.726Z,2.80
2019-05-25T00:07:13.838Z,2.67
2019-05-25T00:09:43.895Z,2.70
2019-05-25T00:12:13.973Z,2.57
2019-05-25T00:14:44.028Z,2.80
2019-05-25T00:17:14.094Z,2.47
2019-05-25T00:19:44.126Z,2.43
2019-05-25T00:22:14.183Z,2.47
2019-05-25T00:24:44.187Z,2.50
2019-05-25T00:27:14.188Z,2.80
2019-05-25T00:29:44.191Z,2.37
2019-05-25T00:32:14.241Z,2.40
2019-05-25T00:34:44.319Z,2.57
2019-05-25T00:37:14.355Z,2.47
2019-05-25T00:39:44.557Z,3.23
2019-05-25T00:42:14.546Z,2.30
2019-05-25T00:44:45.647Z,2.90
2019-05-25T00:47:15.681Z,2.30
2019-05-25T00:49:45.731Z,2.30
2019-05-25T00:52:15.714Z,2.50
2019-05-25T00:54:45.701Z,2.40
2019-05-25T00:57:15.665Z,2.43
2019-05-25T00:59:45.650Z,2.40
2019-05-25T01:02:15.718Z,2.40
2019-05-25T01:04:45.705Z,2.67
2019-05-25T01:07:15.686Z,2.33
2019-05-25T01:09:45.676Z,2.40
2019-05-25T01:12:15.750Z,2.10
2019-05-25T01:14:45.770Z,2.27
2019-05-25T01:17:15.812Z,2.20
2019-05-25T01:19:45.830Z,2.40
2019-05-25T01:22:15.832Z,2.13
2019-05-25T01:24:45.845Z,2.20
2019-05-25T01:27:15.821Z,2.10
2019-05-25T01:29:47.031Z,2.00
2019-05-25T01:32:17.071Z,2.10
2019-05-25T01:34:47.057Z,2.10
2019-05-25T01:37:17.055Z,2.20
2019-05-25T01:39:47.141Z,2.13
2019-05-25T01:42:17.231Z,2.07
2019-05-25T01:44:47.227Z,2.07
2019-05-25T01:47:17.354Z,1.90
2019-05-25T01:49:47.361Z,2.03
2019-05-25T01:52:17.412Z,1.73
2019-05-25T01:54:59.401Z,1.80
2019-05-25T01:57:19.110Z,1.57
2019-05-25T01:59:49.094Z,1.73
2019-05-25T02:02:19.090Z,1.50
2019-05-25T02:04:49.075Z,1.73
2019-05-25T02:07:19.130Z,1.40
2019-05-25T02:09:49.103Z,1.60
2019-05-25T02:12:19.140Z,1.50
2019-05-25T02:14:49.162Z,1.40
2019-05-25T02:17:19.143Z,1.50
2019-05-25T02:19:50.203Z,1.27
2019-05-25T02:22:20.273Z,1.17
2019-05-25T02:24:50.236Z,1.40
2019-05-25T02:27:20.259Z,1.20
2019-05-25T02:29:50.323Z,1.30
2019-05-25T02:32:20.315Z,1.20
2019-05-25T02:34:50.294Z,1.30
2019-05-25T02:37:20.259Z,1.33
2019-05-25T02:39:50.236Z,1.20
2019-05-25T02:42:20.403Z,1.20
2019-05-25T02:44:50.454Z,1.20
2019-05-25T02:47:20.463Z,1.03
2019-05-25T02:49:51.445Z,1.20
2019-05-25T02:52:21.505Z,1.20
2019-05-25T02:54:51.495Z,1.00
2019-05-25T02:57:21.536Z,1.20
2019-05-25T02:59:51.513Z,1.00
2019-05-25T03:02:21.862Z,1.10
2019-05-25T03:04:51.853Z,1.37
2019-05-25T03:07:22.295Z,1.50
2019-05-25T03:09:53.097Z,0.93
2019-05-25T03:12:23.665Z,0.90
2019-05-25T03:14:53.651Z,1.00
2019-05-25T03:17:23.659Z,1.03
2019-05-25T03:19:53.676Z,0.90
2019-05-25T03:22:23.645Z,1.10
2019-05-25T03:24:53.772Z,0.83
2019-05-25T03:27:23.735Z,0.90
2019-05-25T03:29:53.783Z,1.00
2019-05-25T03:32:23.706Z,0.90
2019-05-25T03:34:53.686Z,0.80
2019-05-25T03:37:23.657Z,0.93
2019-05-25T03:39:53.625Z,0.70
2019-05-25T03:42:23.665Z,0.80
2019-05-25T03:44:53.620Z,0.80
2019-05-25T03:47:23.611Z,0.80
2019-05-25T03:49:53.693Z,1.20
2019-05-25T03:52:23.828Z,0.83
2019-05-25T03:54:53.983Z,0.80
2019-05-25T03:57:23.968Z,1.00
2019-05-25T03:59:53.969Z,0.90
2019-05-25T04:02:23.965Z,0.80
2019-05-25T04:04:53.936Z,0.90
2019-05-25T04:07:23.911Z,0.97
2019-05-25T04:09:53.939Z,1.00
2019-05-25T04:12:23.928Z,1.00
2019-05-25T04:14:53.916Z,0.90
2019-05-25T04:17:23.899Z,0.93
2019-05-25T04:19:53.886Z,0.97
2019-05-25T04:22:23.876Z,1.00
2019-05-25T04:24:53.946Z,1.00
2019-05-25T04:27:23.924Z,1.30
2019-05-25T04:29:53.912Z,1.20
2019-05-25T04:32:23.952Z,1.20
2019-05-25T04:34:53.964Z,1.20
2019-05-25T04:37:24.079Z,1.37
2019-05-25T04:39:54.063Z,1.13
2019-05-25T04:42:24.089Z,1.50
2019-05-25T04:44:54.048Z,1.67
2019-05-25T04:47:26.817Z,2.10
2019-05-25T04:49:55.721Z,2.13
2019-05-25T04:52:25.702Z,2.00
2019-05-25T04:54:55.681Z,1.73
2019-05-25T04:57:25.659Z,1.73
2019-05-25T04:59:55.721Z,1.70
2019-05-25T05:02:25.711Z,1.83
2019-05-25T05:04:55.710Z,1.90
2019-05-25T05:07:25.733Z,2.00
2019-05-25T05:10:02.503Z,1.87
2019-05-25T05:12:27.436Z,2.10
2019-05-25T05:14:57.498Z,1.90
2019-05-25T05:17:27.493Z,2.20
2019-05-25T05:19:57.520Z,1.80
2019-05-25T05:22:27.535Z,1.80
2019-05-25T05:24:57.609Z,1.90
2019-05-25T05:27:27.613Z,1.97
2019-05-25T05:29:57.673Z,1.97
2019-05-25T05:32:28.128Z,1.77
2019-05-25T05:34:59.406Z,1.87
2019-05-25T05:37:30.031Z,2.00
2019-05-25T05:40:00.677Z,2.30
2019-05-25T05:42:33.067Z,2.10
2019-05-25T05:45:04.516Z,1.90
2019-05-25T05:47:36.244Z,2.00
2019-05-25T05:50:08.762Z,2.00
2019-05-25T05:52:39.629Z,1.70
2019-05-25T05:55:11.861Z,1.93
2019-05-25T05:57:41.857Z,1.83
2019-05-25T06:00:12.598Z,2.30
2019-05-25T06:02:43.687Z,1.90
2019-05-25T06:05:13.971Z,2.00
2019-05-25T06:07:43.980Z,2.30
2019-05-25T06:10:14.163Z,2.20
2019-05-25T06:12:44.236Z,1.90
2019-05-25T06:15:14.671Z,1.87
2019-05-25T06:17:44.926Z,1.73
2019-05-25T06:20:15.100Z,2.00
2019-05-25T06:22:45.131Z,2.10
2019-05-25T06:25:16.368Z,2.07
2019-05-25T06:27:46.366Z,1.90
2019-05-25T06:30:17.591Z,1.90
2019-05-25T06:32:47.583Z,1.80
2019-05-25T06:35:18.013Z,1.67
2019-05-25T06:37:48.026Z,1.80
2019-05-25T06:40:18.074Z,1.77
2019-05-25T06:42:48.579Z,1.60
2019-05-25T06:45:19.021Z,1.60
2019-05-25T06:47:49.017Z,1.70
2019-05-25T06:50:19.998Z,1.83
2019-05-25T06:52:50.034Z,1.60
2019-05-25T06:55:20.085Z,1.70
2019-05-25T06:57:50.101Z,1.50
2019-05-25T07:00:21.875Z,1.50
2019-05-25T07:02:51.922Z,1.70
2019-05-25T07:05:21.899Z,1.40
2019-05-25T07:07:54.530Z,1.50
2019-05-25T07:10:24.605Z,1.40
2019-05-25T07:12:54.653Z,1.50
2019-05-25T07:15:24.656Z,1.20
2019-05-25T07:17:54.655Z,1.40
2019-05-25T07:20:24.777Z,1.33
2019-05-25T07:22:54.886Z,1.50
2019-05-25T07:25:24.882Z,1.40
2019-05-25T07:27:59.619Z,1.60
2019-05-25T07:30:26.571Z,1.53
2019-05-25T07:32:56.560Z,1.40
2019-05-25T07:35:26.572Z,1.50
2019-05-25T07:37:56.563Z,1.37
2019-05-25T07:40:26.544Z,1.30
2019-05-25T07:43:07.699Z,1.33
2019-05-25T07:45:39.683Z,1.73
2019-05-25T07:48:09.742Z,1.40
2019-05-25T07:50:39.754Z,1.00
2019-05-25T07:53:09.993Z,1.30
2019-05-25T07:55:39.992Z,1.30
2019-05-25T07:58:17.520Z,1.70
2019-05-25T08:00:41.870Z,19.30
2019-05-25T08:03:11.923Z,1.60
2019-05-25T08:05:41.934Z,1.40
2019-05-25T08:08:11.985Z,1.60
2019-05-25T08:10:41.968Z,1.40
2019-05-25T08:13:11.959Z,1.33
2019-05-25T08:15:42.334Z,1.20
2019-05-25T08:18:12.317Z,1.47
2019-05-25T08:20:42.402Z,1.40
2019-05-25T08:23:12.397Z,1.67
2019-05-25T08:25:42.362Z,1.30
2019-05-25T08:28:12.399Z,1.20
2019-05-25T08:30:42.407Z,1.47
2019-05-25T08:33:12.449Z,1.30
2019-05-25T08:35:42.500Z,1.30
2019-05-25T08:38:12.569Z,1.40
2019-05-25T08:40:42.912Z,1.47
2019-05-25T08:43:12.911Z,1.20
2019-05-25T08:45:42.942Z,1.10
2019-05-25T08:48:12.991Z,1.17
2019-05-25T08:50:42.981Z,1.30
2019-05-25T08:53:13.094Z,1.30
2019-05-25T08:55:44.703Z,1.10
2019-05-25T08:58:14.720Z,1.30
2019-05-25T09:00:45.148Z,1.10
2019-05-25T09:03:15.143Z,1.23
2019-05-25T09:05:45.136Z,0.93
2019-05-25T09:08:15.137Z,1.20
2019-05-25T09:10:45.163Z,1.10
2019-05-25T09:13:15.144Z,0.93
2019-05-25T09:15:45.185Z,1.20
2019-05-25T09:18:15.175Z,1.10
2019-05-25T09:20:45.355Z,1.07
2019-05-25T09:23:15.348Z,0.80
2019-05-25T09:25:45.475Z,1.00
2019-05-25T09:28:15.479Z,1.10
2019-05-25T09:30:45.460Z,1.13
2019-05-25T09:33:15.441Z,0.97
2019-05-25T09:35:45.604Z,1.20
2019-05-25T09:38:15.635Z,1.40
2019-05-25T09:40:45.627Z,1.10
2019-05-25T09:43:15.667Z,1.20
2019-05-25T09:45:45.652Z,1.20
2019-05-25T09:48:15.697Z,1.10
2019-05-25T09:50:45.751Z,1.20
2019-05-25T09:53:15.783Z,1.10
2019-05-25T09:55:45.769Z,1.27
2019-05-25T09:58:15.758Z,1.10
2019-05-25T10:00:45.820Z,1.00
2019-05-25T10:03:15.811Z,1.20
2019-05-25T10:05:45.855Z,1.30
2019-05-25T10:08:15.916Z,1.20
2019-05-25T10:10:45.908Z,1.30
2019-05-25T10:13:15.953Z,1.40
2019-05-25T10:15:45.992Z,1.40
2019-05-25T10:18:15.961Z,1.23
2019-05-25T10:20:46.017Z,1.20
2019-05-25T10:23:16.002Z,1.23
2019-05-25T10:25:46.608Z,1.20
2019-05-25T10:28:16.668Z,1.30
2019-05-25T10:30:46.687Z,1.37
2019-05-25T10:33:16.665Z,1.57
2019-05-25T10:35:46.691Z,1.00
2019-05-25T10:38:16.680Z,1.10
2019-05-25T10:40:46.736Z,1.30
2019-05-25T10:43:16.773Z,1.10
2019-05-25T10:45:46.953Z,1.00
2019-05-25T10:48:16.973Z,1.50
2019-05-25T10:50:46.966Z,1.17
2019-05-25T10:53:17.000Z,1.00
2019-05-25T10:55:47.056Z,1.20
2019-05-25T10:58:17.159Z,0.90
2019-05-25T11:00:47.171Z,1.00
2019-05-25T11:03:17.258Z,1.10
2019-05-25T11:05:47.310Z,1.20
2019-05-25T11:08:17.294Z,1.00
2019-05-25T11:10:47.286Z,1.10
2019-05-25T11:13:17.340Z,1.20
2019-05-25T11:15:47.363Z,1.00
2019-05-25T11:18:17.347Z,1.23
2019-05-25T11:20:47.343Z,1.30
2019-05-25T11:23:17.354Z,1.10
2019-05-25T11:25:47.396Z,1.20
2019-05-25T11:28:17.428Z,1.13
2019-05-25T11:30:47.482Z,1.00
2019-05-25T11:33:17.503Z,1.13
2019-05-25T11:35:47.518Z,1.20
2019-05-25T11:38:17.490Z,1.20
2019-05-25T11:40:47.586Z,1.10
2019-05-25T11:43:17.626Z,1.30
2019-05-25T11:45:47.667Z,1.30
2019-05-25T11:48:17.672Z,1.37
2019-05-25T11:50:47.638Z,1.17
2019-05-25T11:53:17.776Z,1.40
2019-05-25T11:55:47.780Z,1.50
2019-05-25T11:58:17.848Z,1.13
2019-05-25T12:00:47.902Z,1.37
2019-05-25T12:03:17.957Z,1.20
2019-05-25T12:05:47.955Z,1.30
2019-05-25T12:08:18.044Z,1.07
2019-05-25T12:10:48.019Z,1.30
2019-05-25T12:13:18.098Z,1.10
2019-05-25T12:15:48.134Z,1.10
2019-05-25T12:18:18.204Z,1.00
2019-05-25T12:20:48.210Z,1.10
2019-05-25T12:23:19.377Z,1.00
2019-05-25T12:25:49.458Z,1.00
2019-05-25T12:28:19.487Z,0.93
2019-05-25T12:30:49.486Z,1.00
2019-05-25T12:33:20.643Z,1.00
2019-05-25T12:35:50.630Z,0.90
2019-05-25T12:38:20.626Z,0.87
2019-05-25T12:40:53.628Z,0.77
2019-05-25T12:46:11.529Z,0.90
2019-05-25T12:48:41.514Z,1.00
2019-05-25T12:51:11.497Z,1.20
2019-05-25T12:53:41.611Z,1.10
2019-05-25T12:56:11.601Z,1.37
2019-05-25T12:58:41.667Z,1.27
2019-05-25T13:01:11.678Z,1.20
2019-05-25T13:03:41.670Z,1.10
2019-05-25T13:06:12.731Z,1.10
2019-05-25T13:08:44.002Z,1.10
2019-05-25T13:11:14.122Z,0.90
2019-05-25T13:13:44.115Z,0.97
2019-05-25T13:16:14.400Z,0.90
2019-05-25T13:18:44.642Z,0.90
2019-05-25T13:21:14.654Z,1.00
2019-05-25T13:23:44.621Z,1.10
2019-05-25T13:26:14.620Z,1.00
2019-05-25T13:28:44.700Z,1.20
2019-05-25T13:31:14.718Z,1.00
2019-05-25T13:33:44.794Z,1.10
2019-05-25T13:36:14.846Z,1.03
2019-05-25T13:38:44.838Z,1.20
2019-05-25T13:41:14.890Z,0.90
2019-05-25T13:43:45.958Z,1.13
2019-05-25T13:46:17.054Z,1.17
2019-05-25T13:48:47.029Z,1.00
2019-05-25T13:51:17.072Z,1.30
2019-05-25T13:53:47.058Z,1.27
2019-05-25T13:56:17.089Z,1.47
2019-05-25T13:58:47.077Z,1.10
2019-05-25T14:01:28.032Z,1.13
2019-05-25T14:03:49.019Z,1.00
2019-05-25T14:06:18.989Z,0.80
2019-05-25T14:08:49.019Z,0.90
2019-05-25T14:11:19.005Z,0.70
2019-05-25T14:13:49.074Z,0.70
2019-05-25T14:16:19.049Z,0.90
2019-05-25T14:18:49.047Z,0.70
2019-05-25T14:21:19.035Z,0.77
2019-05-25T14:23:49.087Z,0.67
2019-05-25T14:26:20.143Z,0.60
2019-05-25T14:28:50.179Z,0.60
2019-05-25T14:31:20.168Z,0.70
2019-05-25T14:33:50.189Z,0.60
2019-05-25T14:36:20.233Z,0.70
2019-05-25T14:38:50.280Z,0.80
2019-05-25T14:41:20.257Z,0.50
2019-05-25T14:43:50.282Z,0.43
2019-05-25T14:46:27.947Z,0.50
2019-05-25T14:48:52.075Z,0.50
2019-05-25T14:51:22.137Z,0.50
2019-05-25T14:53:52.121Z,0.60
2019-05-25T14:56:23.347Z,0.77
2019-05-25T14:58:53.375Z,0.80
2019-05-25T15:01:23.503Z,0.80
2019-05-25T15:03:53.501Z,0.87
2019-05-25T15:06:23.534Z,0.80
2019-05-25T15:08:53.684Z,0.70
2019-05-25T15:11:23.715Z,0.60
2019-05-25T15:13:53.701Z,0.70
2019-05-25T15:16:23.782Z,0.90
2019-05-25T15:18:53.800Z,1.17
2019-05-25T15:21:24.237Z,0.77
2019-05-25T15:23:54.378Z,1.00
2019-05-25T15:26:24.360Z,1.00
2019-05-25T15:28:54.358Z,0.70
2019-05-25T15:31:24.331Z,0.70
2019-05-25T15:33:54.359Z,0.80
2019-05-25T15:36:24.490Z,0.70
2019-05-25T15:38:55.566Z,1.20
2019-05-25T15:41:25.526Z,0.90
2019-05-25T15:43:55.568Z,0.80
2019-05-25T15:46:25.572Z,1.17
2019-05-25T15:48:55.587Z,1.13
2019-05-25T15:51:25.572Z,0.97
2019-05-25T15:53:55.616Z,1.10
2019-05-25T15:56:25.685Z,1.10
2019-05-25T15:58:55.739Z,1.10
2019-05-25T16:01:25.720Z,1.00
2019-05-25T16:03:55.833Z,1.17
2019-05-25T16:06:25.893Z,1.30
2019-05-25T16:08:56.020Z,1.30
2019-05-25T16:11:26.027Z,1.40
2019-05-25T16:13:56.135Z,1.20
2019-05-25T16:16:30.084Z,1.07
2019-05-25T16:18:58.015Z,0.80
2019-05-25T16:21:28.017Z,1.00
2019-05-25T16:23:58.014Z,0.90
2019-05-25T16:26:27.991Z,0.80
2019-05-25T16:28:58.040Z,0.67
2019-05-25T16:31:29.548Z,1.43
2019-05-25T16:33:59.599Z,0.70
2019-05-25T16:36:29.613Z,0.80
2019-05-25T16:38:59.609Z,0.73
2019-05-25T16:41:29.641Z,0.70
2019-05-25T16:43:59.630Z,0.80
2019-05-25T16:46:29.631Z,0.70
2019-05-25T16:48:59.681Z,0.87
2019-05-25T16:51:29.666Z,0.67
2019-05-25T16:53:59.656Z,0.90
2019-05-25T16:56:29.646Z,0.80
2019-05-25T16:58:59.691Z,0.90
2019-05-25T17:01:47.050Z,0.90
2019-05-25T17:04:01.450Z,0.80
2019-05-25T17:06:31.439Z,0.87
2019-05-25T17:09:01.492Z,1.10
2019-05-25T17:11:32.042Z,1.00
2019-05-25T17:14:02.158Z,0.87
2019-05-25T17:16:32.174Z,0.90
2019-05-25T17:19:02.174Z,1.20
2019-05-25T17:21:32.235Z,1.00
2019-05-25T17:24:02.218Z,0.90
2019-05-25T17:26:32.253Z,1.07
2019-05-25T17:29:02.319Z,0.90
2019-05-25T17:31:32.401Z,0.93
2019-05-25T17:34:02.443Z,1.10
2019-05-25T17:36:32.482Z,1.00
2019-05-25T17:39:02.466Z,1.20
2019-05-25T17:41:32.531Z,1.10
2019-05-25T17:44:02.701Z,1.07
2019-05-25T17:46:32.743Z,1.00
2019-05-25T17:49:02.933Z,1.00
2019-05-25T17:51:32.957Z,1.27
2019-05-25T17:54:05.416Z,1.33
2019-05-25T17:56:35.504Z,1.00
2019-05-25T17:59:07.035Z,1.20
2019-05-25T18:01:37.031Z,1.20
2019-05-25T18:04:08.040Z,1.20
2019-05-25T18:06:38.192Z,1.17
2019-05-25T18:09:08.520Z,1.13
2019-05-25T18:11:38.521Z,1.10
2019-05-25T18:14:08.593Z,1.23
2019-05-25T18:16:38.572Z,1.30
2019-05-25T18:19:09.477Z,1.20
2019-05-25T18:21:39.473Z,1.30
2019-05-25T18:24:09.574Z,1.10
2019-05-25T18:26:39.558Z,1.37
2019-05-25T18:29:09.572Z,1.20
2019-05-25T18:31:39.571Z,1.37
2019-05-25T18:34:21.615Z,1.30
2019-05-25T18:36:41.262Z,1.23
2019-05-25T18:39:11.277Z,1.60
2019-05-25T18:41:41.272Z,1.30
2019-05-25T18:44:11.257Z,1.80
2019-05-25T18:46:41.283Z,1.63
2019-05-25T18:49:11.289Z,2.20
2019-05-25T18:51:41.383Z,1.63
2019-05-25T18:54:11.366Z,1.90
2019-05-25T18:56:41.387Z,1.60
2019-05-25T18:59:11.373Z,1.60
2019-05-25T19:01:41.383Z,1.60
2019-05-25T19:04:11.378Z,1.90
2019-05-25T19:06:43.097Z,1.90
2019-05-25T19:09:13.220Z,1.60
2019-05-25T19:11:43.252Z,1.90
2019-05-25T19:14:13.207Z,1.80
2019-05-25T19:16:43.327Z,1.50
2019-05-25T19:19:13.356Z,2.10
2019-05-25T19:21:43.342Z,2.47
2019-05-25T19:24:13.341Z,3.40
2019-05-25T19:26:43.429Z,2.80
2019-05-25T19:29:13.401Z,2.93
2019-05-25T19:31:43.388Z,3.27
2019-05-25T19:34:13.378Z,2.90
2019-05-25T19:36:45.172Z,2.80
2019-05-25T19:39:15.311Z,2.87
2019-05-25T19:41:47.430Z,3.37
2019-05-25T19:44:17.496Z,3.53
2019-05-25T19:46:48.799Z,3.30
2019-05-25T19:49:18.925Z,4.13
2019-05-25T19:51:48.955Z,3.03
2019-05-25T19:54:18.974Z,3.43
2019-05-25T19:56:48.965Z,3.07
2019-05-25T19:59:19.047Z,4.57
2019-05-25T20:01:49.075Z,4.03
2019-05-25T20:04:19.148Z,4.43
2019-05-25T20:06:55.195Z,5.20
2019-05-25T20:09:25.328Z,5.60
2019-05-25T20:11:55.679Z,4.00
2019-05-25T20:14:25.753Z,5.27
2019-05-25T20:16:55.818Z,4.93
2019-05-25T20:19:25.829Z,4.27
2019-05-25T20:21:55.856Z,3.73
2019-05-25T20:24:25.837Z,5.13
2019-05-25T20:26:55.837Z,4.10
2019-05-25T20:29:28.349Z,3.73
2019-05-25T20:31:58.329Z,5.13
2019-05-25T20:34:28.395Z,3.73
2019-05-25T20:37:02.067Z,3.90
2019-05-25T20:39:33.232Z,3.90
2019-05-25T20:42:03.206Z,3.90
2019-05-25T20:44:33.210Z,4.77
2019-05-25T20:47:03.399Z,5.30
2019-05-25T20:49:33.402Z,3.50
2019-05-25T20:52:03.482Z,3.47
2019-05-25T20:54:34.670Z,3.90
2019-05-25T20:57:04.750Z,4.77
2019-05-25T20:59:34.769Z,4.03
2019-05-25T21:02:05.298Z,4.13
2019-05-25T21:04:35.371Z,3.20
2019-05-25T21:07:05.426Z,4.93
2019-05-25T21:09:35.429Z,4.40
2019-05-25T21:12:05.536Z,4.13
2019-05-25T21:14:35.498Z,4.33
2019-05-25T21:17:05.495Z,5.00
2019-05-25T21:19:36.613Z,3.87
2019-05-25T21:22:07.274Z,3.30
2019-05-25T21:24:37.276Z,6.17
2019-05-25T21:27:07.336Z,3.23
2019-05-25T21:29:37.328Z,3.60
2019-05-25T21:32:07.353Z,3.20
2019-05-25T21:34:38.922Z,4.40
2019-05-25T21:37:09.945Z,5.50
2019-05-25T21:39:39.945Z,4.93
2019-05-25T21:42:09.962Z,3.93
2019-05-25T21:44:39.960Z,3.80
2019-05-25T21:47:09.949Z,3.73
2019-05-25T21:49:39.965Z,4.50
2019-05-25T21:52:13.778Z,3.10
2019-05-25T21:54:45.420Z,3.67
2019-05-25T21:57:15.556Z,3.40
2019-05-25T21:59:45.544Z,4.13
2019-05-25T22:02:15.613Z,4.13
2019-05-25T22:04:45.680Z,4.20
2019-05-25T22:07:18.094Z,4.77
2019-05-25T22:09:48.998Z,3.30
2019-05-25T22:12:18.997Z,3.37
2019-05-25T22:14:48.981Z,4.57
2019-05-25T22:17:19.045Z,5.40
2019-05-25T22:19:49.031Z,5.17
2019-05-25T22:22:19.136Z,4.30
2019-05-25T22:24:49.134Z,5.10
2019-05-25T22:27:19.311Z,4.23
2019-05-25T22:29:49.332Z,3.67
2019-05-25T22:32:19.333Z,3.17
2019-05-25T22:34:49.352Z,4.50
2019-05-25T22:37:19.385Z,5.40
2019-05-25T22:39:49.386Z,4.40
2019-05-25T22:42:19.449Z,3.83
2019-05-25T22:44:49.482Z,3.97
2019-05-25T22:47:19.463Z,4.30
2019-05-25T22:49:49.425Z,3.27
2019-05-25T22:52:19.422Z,2.93
2019-05-25T22:54:49.470Z,3.87
2019-05-25T22:57:19.465Z,4.10
2019-05-25T22:59:49.501Z,4.93
2019-05-25T23:02:19.559Z,4.00
2019-05-25T23:04:49.568Z,3.47
2019-05-25T23:07:19.596Z,2.53
2019-05-25T23:09:49.592Z,3.90
2019-05-25T23:12:19.703Z,4.40
2019-05-25T23:14:49.697Z,3.40
2019-05-25T23:17:19.705Z,3.63
2019-05-25T23:19:49.706Z,4.23
2019-05-25T23:22:20.487Z,3.90
2019-05-25T23:24:50.521Z,4.17
2019-05-25T23:27:20.517Z,4.33
2019-05-25T23:29:50.531Z,3.40
2019-05-25T23:32:20.667Z,3.77
2019-05-25T23:34:50.695Z,3.67
2019-05-25T23:37:20.762Z,2.87
2019-05-25T23:39:50.909Z,2.97
2019-05-25T23:42:20.966Z,3.33
2019-05-25T23:44:50.951Z,2.80
2019-05-25T23:47:21.064Z,2.80
2019-05-25T23:49:51.085Z,3.20
2019-05-25T23:52:21.076Z,2.97
2019-05-25T23:54:51.074Z,3.33
2019-05-25T23:57:21.082Z,3.07
2019-05-25T23:59:51.074Z,3.30
